Time;durP1;ratioP1;P1;durP2;ratioP2;P2;SDS_P1;SDS_P2;PMS_P1;PMS_P2;Temp;Humidity;BMP_temperature;BMP_pressure;BME280_temperature;BME280_humidity;BME280_pressure;Samples;Min_cycle;Max_cycle;Signal;HPM_P1;HPM_P2
2023/07/15 00:00:23;;;;;;;6.38;2.63;;;21.50;99.90;;;;;;5092471;28;20547;-70
2023/07/15 00:02:50;;;;;;;4.70;2.28;;;21.40;99.90;;;;;;5097204;28;20051;-70
2023/07/15 00:05:20;;;;;;;4.15;2.28;;;21.40;99.90;;;;;;5093770;28;20367;-70
2023/07/15 00:07:47;;;;;;;9.15;2.70;;;21.30;99.90;;;;;;5101611;28;20020;-70
2023/07/15 00:10:14;;;;;;;7.13;2.53;;;21.20;99.90;;;;;;5099311;28;20470;-70
2023/07/15 00:12:39;;;;;;;7.82;2.80;;;21.20;99.90;;;;;;5098573;28;20028;-70
2023/07/15 00:15:06;;;;;;;6.15;2.30;;;21.20;99.90;;;;;;5095449;28;20043;-70
2023/07/15 00:17:32;;;;;;;4.10;2.17;;;21.20;99.90;;;;;;5099526;28;20058;-70
2023/07/15 00:19:57;;;;;;;6.93;2.60;;;21.20;99.90;;;;;;5100364;28;20063;-70
2023/07/15 00:22:23;;;;;;;6.35;2.58;;;21.20;99.90;;;;;;5095529;28;20081;-70
2023/07/15 00:24:49;;;;;;;4.28;2.50;;;21.20;99.90;;;;;;5099369;28;20055;-70
2023/07/15 00:27:14;;;;;;;4.93;2.60;;;21.20;99.90;;;;;;5096512;28;20091;-70
2023/07/15 00:29:40;;;;;;;6.60;2.75;;;21.10;99.90;;;;;;5097252;28;20024;-70
2023/07/15 00:32:12;;;;;;;5.00;2.28;;;21.00;99.90;;;;;;5094841;28;20024;-70
2023/07/15 00:34:37;;;;;;;5.57;2.50;;;21.10;99.90;;;;;;5099471;28;20150;-70
2023/07/15 00:37:03;;;;;;;6.07;2.45;;;21.10;99.90;;;;;;5095018;28;20102;-70
2023/07/15 00:39:29;;;;;;;4.93;2.15;;;21.10;99.90;;;;;;5097754;28;20051;-70
2023/07/15 00:41:58;;;;;;;5.70;2.35;;;21.00;99.90;;;;;;5095729;28;20035;-70
2023/07/15 00:44:24;;;;;;;6.05;2.53;;;21.00;99.90;;;;;;5097550;28;20100;-70
2023/07/15 00:47:29;;;;;;;7.35;2.92;;;21.00;99.90;;;;;;5096842;28;20024;-70
2023/07/15 00:49:55;;;;;;;6.18;2.90;;;20.80;99.90;;;;;;5090051;28;20028;-70
2023/07/15 00:52:21;;;;;;;9.60;2.85;;;21.00;99.90;;;;;;5090430;28;20020;-70
2023/07/15 00:54:50;;;;;;;5.43;2.60;;;21.00;99.90;;;;;;5095218;28;20032;-70
2023/07/15 00:57:17;;;;;;;4.07;2.10;;;20.90;99.90;;;;;;5091437;28;20047;-70
2023/07/15 00:59:45;;;;;;;6.35;2.60;;;20.80;99.90;;;;;;5100130;28;20382;-71
2023/07/15 01:02:12;;;;;;;5.20;2.53;;;20.80;99.90;;;;;;5091479;28;20024;-70
2023/07/15 01:04:38;;;;;;;5.80;2.30;;;20.70;99.90;;;;;;5091382;28;20081;-70
2023/07/15 01:07:05;;;;;;;5.25;2.55;;;20.70;99.90;;;;;;5097387;28;20023;-72
2023/07/15 01:09:30;;;;;;;5.63;2.65;;;20.70;99.90;;;;;;5096662;28;20024;-70
2023/07/15 01:11:56;;;;;;;5.88;2.70;;;20.60;99.90;;;;;;5090056;28;20483;-72
2023/07/15 01:14:22;;;;;;;13.35;3.45;;;20.70;99.90;;;;;;5099221;28;20111;-72
2023/07/15 01:16:47;;;;;;;7.13;3.17;;;20.80;99.90;;;;;;5103778;28;20388;-72
2023/07/15 01:19:17;;;;;;;6.35;3.15;;;20.90;99.90;;;;;;5103070;28;20039;-72
2023/07/15 01:21:43;;;;;;;3.78;2.40;;;20.90;99.90;;;;;;5093772;28;20035;-72
2023/07/15 01:24:08;;;;;;;5.63;3.30;;;20.90;99.90;;;;;;5104423;28;20397;-72
2023/07/15 01:26:34;;;;;;;8.18;3.10;;;21.00;99.90;;;;;;5093107;28;20478;-72
2023/07/15 01:29:00;;;;;;;8.35;2.83;;;20.90;99.90;;;;;;5096331;28;20424;-72
2023/07/15 01:31:30;;;;;;;6.63;3.03;;;20.60;99.90;;;;;;5091738;28;20049;-72
2023/07/15 01:33:55;;;;;;;6.68;2.95;;;20.50;99.90;;;;;;5096205;28;20028;-72
2023/07/15 01:36:24;;;;;;;6.70;2.80;;;20.30;99.90;;;;;;5094673;28;20036;-72
2023/07/15 01:38:49;;;;;;;8.50;2.80;;;20.40;99.90;;;;;;5099373;28;20047;-72
2023/07/15 01:41:16;;;;;;;7.85;3.13;;;20.60;99.90;;;;;;5096969;28;20028;-72
2023/07/15 01:43:41;;;;;;;4.75;2.40;;;20.70;99.90;;;;;;5101551;27;20028;-72
2023/07/15 01:46:07;;;;;;;5.70;2.75;;;20.70;99.90;;;;;;5098385;28;20381;-72
2023/07/15 01:48:33;;;;;;;5.53;2.20;;;20.60;99.90;;;;;;5097136;28;20024;-72
2023/07/15 01:50:59;;;;;;;5.25;2.42;;;20.60;99.90;;;;;;5098577;28;20038;-72
2023/07/15 01:53:24;;;;;;;5.68;2.95;;;20.40;99.90;;;;;;5101967;28;20027;-72
2023/07/15 01:55:50;;;;;;;5.30;3.05;;;20.30;99.90;;;;;;5100521;28;20032;-72
2023/07/15 01:58:16;;;;;;;9.95;3.95;;;20.40;99.90;;;;;;5111736;28;20489;-72
2023/07/15 02:00:42;;;;;;;8.82;2.78;;;20.30;99.90;;;;;;5101332;28;20050;-72
2023/07/15 02:03:08;;;;;;;9.63;2.80;;;20.00;99.90;;;;;;5100873;28;20093;-72
2023/07/15 02:05:34;;;;;;;10.95;3.25;;;19.90;99.90;;;;;;5097944;28;20034;-72
2023/07/15 02:08:00;;;;;;;8.00;3.28;;;19.70;99.90;;;;;;5100461;28;20028;-71
2023/07/15 02:10:27;;;;;;;9.30;3.55;;;19.70;99.90;;;;;;5097550;28;20055;-72
2023/07/15 02:12:52;;;;;;;7.70;2.95;;;19.80;99.90;;;;;;5104733;28;20111;-71
2023/07/15 02:15:18;;;;;;;5.75;2.53;;;19.80;99.90;;;;;;5099591;28;20115;-71
2023/07/15 02:17:45;;;;;;;5.35;2.88;;;19.70;99.90;;;;;;5097586;28;20047;-72
2023/07/15 02:20:12;;;;;;;5.82;2.72;;;19.80;99.90;;;;;;5098709;28;20027;-71
2023/07/15 02:22:38;;;;;;;6.88;3.13;;;19.80;99.90;;;;;;5103174;28;20059;-72
2023/07/15 02:25:04;;;;;;;5.65;2.47;;;19.70;99.90;;;;;;5098661;28;20054;-72
2023/07/15 02:27:31;;;;;;;10.50;3.22;;;19.80;99.90;;;;;;5099780;28;20110;-71
2023/07/15 02:29:56;;;;;;;6.70;3.20;;;19.70;99.90;;;;;;5100746;28;20031;-72
2023/07/15 02:32:40;;;;;;;8.43;3.20;;;19.70;99.90;;;;;;5099613;28;20031;-72
2023/07/15 02:35:08;;;;;;;9.68;3.03;;;19.50;99.90;;;;;;5102156;28;20028;-71
2023/07/15 02:37:35;;;;;;;7.47;3.00;;;19.50;99.90;;;;;;5099213;28;20111;-71
2023/07/15 02:40:02;;;;;;;5.80;3.10;;;19.70;99.90;;;;;;5099951;28;20032;-71
2023/07/15 02:42:27;;;;;;;9.77;3.10;;;19.70;99.90;;;;;;5092010;28;20039;-71
2023/07/15 02:44:53;;;;;;;7.55;3.03;;;19.70;99.90;;;;;;5105367;28;20020;-72
2023/07/15 02:47:18;;;;;;;8.00;2.95;;;19.70;99.90;;;;;;5106165;28;20036;-72
2023/07/15 02:49:44;;;;;;;7.22;3.00;;;19.60;99.90;;;;;;5100830;28;20072;-72
2023/07/15 02:52:10;;;;;;;5.30;2.80;;;19.50;99.90;;;;;;5103552;28;20045;-71
2023/07/15 02:54:35;;;;;;;7.30;3.22;;;19.60;99.90;;;;;;5101736;28;20032;-71
2023/07/15 02:57:02;;;;;;;7.68;3.22;;;19.80;99.90;;;;;;5094865;28;20027;-72
2023/07/15 02:59:27;;;;;;;8.43;3.08;;;19.70;99.90;;;;;;5099772;28;20043;-72
2023/07/15 03:01:53;;;;;;;7.18;2.58;;;19.70;99.90;;;;;;5100070;28;20028;-71
2023/07/15 03:04:19;;;;;;;5.82;3.05;;;19.60;99.90;;;;;;5093390;28;20016;-72
2023/07/15 03:06:44;;;;;;;7.03;3.03;;;19.70;99.90;;;;;;5088104;28;20024;-71
2023/07/15 03:09:11;;;;;;;7.65;3.15;;;19.50;99.90;;;;;;5094102;28;20028;-71
2023/07/15 03:11:37;;;;;;;8.40;3.05;;;19.60;99.90;;;;;;5092790;28;20031;-71
2023/07/15 03:14:02;;;;;;;7.60;2.60;;;19.80;99.90;;;;;;5096540;28;20028;-71
2023/07/15 03:16:28;;;;;;;10.15;2.90;;;19.80;99.90;;;;;;5090916;28;20032;-71
2023/07/15 03:18:53;;;;;;;6.75;3.42;;;19.70;99.90;;;;;;5091809;28;20442;-71
2023/07/15 03:21:19;;;;;;;8.38;3.50;;;19.40;99.90;;;;;;5088102;28;20024;-71
2023/07/15 03:23:45;;;;;;;7.88;2.90;;;19.30;99.90;;;;;;5091082;28;20078;-72
2023/07/15 03:26:10;;;;;;;7.18;4.00;;;19.20;99.90;;;;;;5091002;28;20035;-71
2023/07/15 03:28:36;;;;;;;7.85;3.30;;;19.30;99.90;;;;;;5092382;28;20449;-71
2023/07/15 03:31:02;;;;;;;6.20;3.03;;;19.40;99.90;;;;;;5097771;28;20414;-71
2023/07/15 03:33:27;;;;;;;6.13;3.00;;;19.30;99.90;;;;;;5087685;28;20075;-71
2023/07/15 03:35:53;;;;;;;10.05;3.45;;;19.30;99.90;;;;;;5098359;28;20115;-71
2023/07/15 03:38:18;;;;;;;6.15;3.17;;;19.30;99.90;;;;;;5088739;28;20085;-71
2023/07/15 03:40:44;;;;;;;5.82;3.78;;;19.30;99.90;;;;;;5089380;28;20028;-71
2023/07/15 03:43:10;;;;;;;9.40;3.83;;;19.40;99.90;;;;;;5095565;28;20028;-71
2023/07/15 03:45:35;;;;;;;6.80;3.58;;;19.40;99.90;;;;;;5090363;28;20053;-71
2023/07/15 03:48:01;;;;;;;11.43;3.65;;;19.50;99.90;;;;;;5084585;28;20044;-71
2023/07/15 03:50:27;;;;;;;7.50;3.50;;;19.50;99.90;;;;;;5086829;28;20028;-71
2023/07/15 03:52:52;;;;;;;8.65;3.60;;;19.40;99.90;;;;;;5088036;28;20111;-71
2023/07/15 03:55:18;;;;;;;6.60;3.08;;;19.40;99.90;;;;;;5090957;28;20103;-71
2023/07/15 03:57:43;;;;;;;8.80;3.35;;;19.30;99.90;;;;;;5096474;28;20493;-71
2023/07/15 04:00:17;;;;;;;5.05;3.35;;;19.30;99.90;;;;;;5086527;28;20072;-71
2023/07/15 04:02:49;;;;;;;5.63;2.65;;;19.30;99.90;;;;;;5085070;28;20084;-71
2023/07/15 04:05:15;;;;;;;7.13;3.53;;;19.20;99.90;;;;;;5090003;28;20027;-71
2023/07/15 04:07:40;;;;;;;6.65;4.13;;;19.30;99.90;;;;;;5100976;28;20035;-71
2023/07/15 04:10:07;;;;;;;6.57;3.30;;;19.30;99.90;;;;;;5108136;28;20035;-71
2023/07/15 04:12:32;;;;;;;7.07;3.58;;;19.30;99.90;;;;;;5094165;28;20031;-71
2023/07/15 04:14:58;;;;;;;7.30;3.88;;;19.20;99.90;;;;;;5091256;28;20032;-71
2023/07/15 04:17:24;;;;;;;7.47;3.40;;;19.10;99.90;;;;;;5097359;28;20036;-71
2023/07/15 04:19:49;;;;;;;8.10;3.92;;;19.00;99.90;;;;;;5090900;28;20043;-71
2023/07/15 04:22:15;;;;;;;9.13;3.75;;;19.10;99.90;;;;;;5091015;28;20111;-71
2023/07/15 04:24:40;;;;;;;8.48;3.75;;;19.10;99.90;;;;;;5086357;28;20479;-71
2023/07/15 04:27:06;;;;;;;12.82;4.07;;;19.20;99.90;;;;;;5094003;28;20030;-71
2023/07/15 04:29:32;;;;;;;10.98;3.50;;;19.20;99.90;;;;;;5093770;28;20024;-71
2023/07/15 04:31:58;;;;;;;6.38;3.75;;;19.30;99.90;;;;;;5097229;28;20039;-71
2023/07/15 04:34:23;;;;;;;12.15;3.42;;;19.40;99.90;;;;;;5094868;28;20027;-71
2023/07/15 04:36:49;;;;;;;10.38;4.07;;;19.30;99.90;;;;;;5089469;28;20035;-71
2023/07/15 04:39:15;;;;;;;5.82;3.20;;;19.40;99.90;;;;;;5100400;28;20054;-71
2023/07/15 04:41:41;;;;;;;6.35;3.28;;;19.50;99.90;;;;;;5095998;28;20024;-71
2023/07/15 04:44:06;;;;;;;7.18;3.75;;;19.50;99.90;;;;;;5088795;28;20413;-71
2023/07/15 04:46:32;;;;;;;5.90;3.50;;;19.50;99.90;;;;;;5088298;28;20025;-72
2023/07/15 04:48:58;;;;;;;6.22;3.60;;;19.60;99.90;;;;;;5090253;28;23622;-71
2023/07/15 04:51:24;;;;;;;6.63;3.58;;;19.80;99.90;;;;;;5088918;28;20433;-71
2023/07/15 04:53:49;;;;;;;8.93;3.58;;;19.90;99.90;;;;;;5091485;28;20016;-71
2023/07/15 04:56:15;;;;;;;6.03;3.65;;;19.90;99.90;;;;;;5098395;28;20408;-71
2023/07/15 04:58:41;;;;;;;9.77;3.70;;;20.00;99.90;;;;;;5092066;28;20052;-71
2023/07/15 05:01:06;;;;;;;12.20;4.43;;;20.30;99.90;;;;;;5089812;28;20024;-71
2023/07/15 05:03:33;;;;;;;11.63;3.88;;;20.30;99.90;;;;;;5092246;28;20053;-71
2023/07/15 05:05:59;;;;;;;8.15;3.63;;;20.20;99.90;;;;;;5089002;28;20035;-71
2023/07/15 05:08:24;;;;;;;8.48;4.28;;;20.30;99.90;;;;;;5088033;28;20019;-71
2023/07/15 05:10:51;;;;;;;6.43;3.75;;;20.20;99.90;;;;;;5089804;28;20032;-71
2023/07/15 05:13:17;;;;;;;10.15;4.30;;;20.20;99.90;;;;;;5093025;28;20031;-71
2023/07/15 05:15:43;;;;;;;9.38;4.03;;;20.20;99.90;;;;;;5093679;28;20081;-71
2023/07/15 05:18:09;;;;;;;5.18;3.53;;;20.00;99.90;;;;;;5105255;28;20035;-71
2023/07/15 05:20:35;;;;;;;4.97;3.25;;;19.90;99.90;;;;;;5095803;28;20020;-71
2023/07/15 05:23:02;;;;;;;12.90;3.85;;;19.80;99.90;;;;;;5099615;28;20031;-71
2023/07/15 05:25:28;;;;;;;7.13;4.18;;;19.70;99.90;;;;;;5094655;28;20023;-71
2023/07/15 05:27:54;;;;;;;5.43;4.03;;;20.00;99.90;;;;;;5097739;28;20122;-71
2023/07/15 05:30:20;;;;;;;5.15;3.55;;;20.20;99.90;;;;;;5102199;27;20028;-71
2023/07/15 05:32:46;;;;;;;7.97;4.00;;;20.30;99.90;;;;;;5100734;28;20027;-71
2023/07/15 05:35:11;;;;;;;10.93;4.25;;;20.40;99.90;;;;;;5096660;28;20078;-71
2023/07/15 05:37:37;;;;;;;5.65;3.42;;;20.50;99.90;;;;;;5093911;28;20035;-71
2023/07/15 05:40:09;;;;;;;6.35;3.67;;;20.60;99.90;;;;;;5097971;28;20045;-71
2023/07/15 05:42:37;;;;;;;5.82;3.30;;;20.60;99.90;;;;;;5095447;28;20070;-71
2023/07/15 05:45:03;;;;;;;7.85;3.60;;;20.50;99.90;;;;;;5098019;28;20038;-71
2023/07/15 05:47:30;;;;;;;8.60;3.80;;;20.50;99.90;;;;;;5104384;28;20063;-72
2023/07/15 05:49:56;;;;;;;12.25;3.85;;;20.50;99.90;;;;;;5093045;28;20028;-71
2023/07/15 05:52:22;;;;;;;6.55;3.50;;;20.50;99.90;;;;;;5090208;28;20035;-71
2023/07/15 05:54:47;;;;;;;9.10;4.13;;;20.40;99.90;;;;;;5096100;28;20035;-71
2023/07/15 05:57:13;;;;;;;8.82;4.18;;;20.50;99.90;;;;;;5096189;28;20032;-71
2023/07/15 05:59:39;;;;;;;8.63;4.53;;;20.50;99.90;;;;;;5094514;28;20035;-71
2023/07/15 06:02:05;;;;;;;8.45;4.22;;;20.40;99.90;;;;;;5106184;28;20028;-71
2023/07/15 06:04:31;;;;;;;8.73;4.07;;;20.50;99.90;;;;;;5094695;28;20489;-72
2023/07/15 06:06:56;;;;;;;6.25;3.88;;;20.50;99.90;;;;;;5092459;28;20103;-71
2023/07/15 06:09:22;;;;;;;7.63;3.63;;;20.50;99.90;;;;;;5103730;28;20042;-72
2023/07/15 06:11:48;;;;;;;6.82;3.58;;;20.60;99.90;;;;;;5094625;28;20028;-71
2023/07/15 06:14:13;;;;;;;5.80;4.10;;;20.70;99.90;;;;;;5089758;28;20077;-71
2023/07/15 06:16:39;;;;;;;8.68;4.20;;;20.80;99.90;;;;;;5098917;28;20059;-71
2023/07/15 06:19:04;;;;;;;8.13;4.25;;;20.80;99.90;;;;;;5089483;28;20123;-72
2023/07/15 06:21:30;;;;;;;9.05;4.70;;;20.80;99.90;;;;;;5092333;28;20031;-72
2023/07/15 06:23:56;;;;;;;6.32;3.58;;;20.80;99.90;;;;;;5091104;28;20081;-71
2023/07/15 06:26:21;;;;;;;8.07;4.07;;;20.80;99.90;;;;;;5090315;28;20039;-71
2023/07/15 06:28:47;;;;;;;7.35;3.90;;;20.80;99.90;;;;;;5088256;28;20024;-71
2023/07/15 06:31:13;;;;;;;9.82;4.15;;;20.80;99.90;;;;;;5094348;27;20020;-71
2023/07/15 06:33:41;;;;;;;7.97;4.32;;;20.90;99.90;;;;;;5088390;28;20039;-71
2023/07/15 06:36:07;;;;;;;7.40;4.18;;;20.90;99.90;;;;;;5093848;28;20035;-71
2023/07/15 06:38:32;;;;;;;5.88;3.97;;;21.00;99.90;;;;;;5093561;28;20035;-71
2023/07/15 06:40:58;;;;;;;6.78;4.43;;;21.10;99.90;;;;;;5095223;28;20486;-71
2023/07/15 06:43:24;;;;;;;7.85;4.30;;;21.10;99.90;;;;;;5091836;28;20038;-71
2023/07/15 06:45:50;;;;;;;10.20;4.63;;;21.20;99.90;;;;;;5094490;28;20683;-71
2023/07/15 06:48:18;;;;;;;6.63;4.13;;;21.30;99.90;;;;;;5090467;27;20020;-71
2023/07/15 06:50:44;;;;;;;6.60;4.28;;;21.40;99.90;;;;;;5089180;28;20480;-71
2023/07/15 06:53:09;;;;;;;6.25;4.43;;;21.50;99.90;;;;;;5096880;28;20051;-71
2023/07/15 06:55:36;;;;;;;10.25;3.95;;;21.50;99.90;;;;;;5092304;28;20024;-71
2023/07/15 06:58:02;;;;;;;6.85;3.88;;;21.60;99.90;;;;;;5093022;28;20043;-72
2023/07/15 07:00:29;;;;;;;7.60;4.53;;;21.70;99.90;;;;;;5097539;28;20035;-72
2023/07/15 07:02:54;;;;;;;9.88;4.28;;;21.90;99.90;;;;;;5091404;27;20043;-71
2023/07/15 07:05:20;;;;;;;8.18;4.10;;;22.10;99.90;;;;;;5071471;28;20470;-72
2023/07/15 07:07:46;;;;;;;6.85;4.10;;;22.30;99.90;;;;;;5074530;28;20476;-71
2023/07/15 07:10:12;;;;;;;7.57;4.10;;;22.50;99.90;;;;;;5071041;28;20038;-72
2023/07/15 07:12:38;;;;;;;6.60;3.63;;;22.80;99.90;;;;;;5072999;28;20565;-73
2023/07/15 07:15:05;;;;;;;7.53;4.15;;;22.90;99.90;;;;;;5073791;28;20088;-72
2023/07/15 07:17:30;;;;;;;6.20;3.83;;;23.20;99.90;;;;;;5074631;28;20028;-72
2023/07/15 07:19:58;;;;;;;6.68;4.15;;;23.60;99.90;;;;;;5073854;28;20108;-73
2023/07/15 07:22:23;;;;;;;6.68;3.92;;;23.80;99.90;;;;;;5072272;28;21411;-72
2023/07/15 07:24:49;;;;;;;6.53;3.78;;;24.00;99.90;;;;;;5076791;28;20389;-72
2023/07/15 07:27:15;;;;;;;8.32;3.92;;;24.10;99.90;;;;;;5073031;28;20036;-72
2023/07/15 07:29:40;;;;;;;11.57;3.80;;;24.30;99.90;;;;;;5072085;28;21057;-72
2023/07/15 07:32:06;;;;;;;7.22;3.45;;;24.60;99.90;;;;;;5074360;28;20040;-72
2023/07/15 07:34:33;;;;;;;6.25;3.70;;;25.30;99.90;;;;;;5078907;27;20085;-72
2023/07/15 07:36:59;;;;;;;8.52;4.03;;;26.30;99.90;;;;;;5073284;28;20042;-72
2023/07/15 07:39:25;;;;;;;9.00;3.88;;;27.30;99.90;;;;;;5073649;28;20214;-72
2023/07/15 07:41:51;;;;;;;6.22;3.53;;;28.20;98.10;;;;;;5079328;28;20035;-72
2023/07/15 07:44:17;;;;;;;7.65;3.92;;;29.40;96.80;;;;;;5092353;28;20435;-72
2023/07/15 07:46:42;;;;;;;7.57;3.80;;;30.40;95.60;;;;;;5091747;28;20021;-72
2023/07/15 07:49:08;;;;;;;7.75;3.92;;;30.90;94.80;;;;;;5092195;28;20055;-72
2023/07/15 07:51:34;;;;;;;7.93;3.35;;;30.80;94.80;;;;;;5097743;28;20095;-73
2023/07/15 07:53:59;;;;;;;8.73;4.28;;;31.00;94.90;;;;;;5095726;28;20035;-70
2023/07/15 07:56:27;;;;;;;6.35;3.80;;;30.80;94.70;;;;;;5089470;28;20032;-72
2023/07/15 07:58:59;;;;;;;5.82;3.42;;;30.70;94.70;;;;;;5090367;28;20027;-72
2023/07/15 08:01:25;;;;;;;8.50;4.13;;;30.30;95.10;;;;;;5102839;28;20322;-73
2023/07/15 08:03:53;;;;;;;7.70;3.90;;;29.90;95.10;;;;;;5098440;28;20464;-73
2023/07/15 08:06:20;;;;;;;8.07;3.58;;;29.30;95.70;;;;;;5093143;28;20042;-72
2023/07/15 08:08:46;;;;;;;7.30;3.60;;;29.10;96.20;;;;;;5093415;28;20469;-73
2023/07/15 08:11:12;;;;;;;8.48;3.33;;;28.00;96.70;;;;;;5098727;28;20042;-73
2023/07/15 08:13:37;;;;;;;7.60;4.00;;;27.50;97.50;;;;;;5102823;28;20016;-72
2023/07/15 08:16:03;;;;;;;8.52;4.57;;;27.30;98.00;;;;;;5098219;28;20032;-72
2023/07/15 08:18:29;;;;;;;9.90;3.83;;;27.50;98.30;;;;;;5088225;28;20533;-73
2023/07/15 08:20:55;;;;;;;6.13;3.75;;;27.10;98.00;;;;;;5106623;28;20020;-72
2023/07/15 08:23:20;;;;;;;8.82;4.00;;;27.00;99.00;;;;;;5100240;28;20031;-72
2023/07/15 08:25:46;;;;;;;7.53;3.75;;;27.10;98.00;;;;;;5088472;28;20042;-72
2023/07/15 08:28:12;;;;;;;8.23;3.67;;;27.10;97.90;;;;;;5110800;27;20033;-73
2023/07/15 08:30:37;;;;;;;5.80;3.80;;;26.80;98.10;;;;;;5107650;28;20024;-73
2023/07/15 08:33:04;;;;;;;7.57;4.22;;;26.60;98.80;;;;;;5106539;28;20697;-72
2023/07/15 08:35:31;;;;;;;9.35;3.97;;;26.80;98.60;;;;;;5103924;28;20027;-72
2023/07/15 08:37:57;;;;;;;9.27;4.03;;;27.00;98.90;;;;;;5098786;28;20028;-72
2023/07/15 08:40:25;;;;;;;7.40;3.83;;;27.00;99.60;;;;;;5103319;28;20039;-72
2023/07/15 08:42:51;;;;;;;8.10;4.13;;;26.90;99.20;;;;;;5105860;28;20028;-72
2023/07/15 08:45:18;;;;;;;8.43;4.40;;;26.70;99.10;;;;;;5088978;28;20036;-72
2023/07/15 08:47:44;;;;;;;5.75;3.83;;;26.80;99.00;;;;;;5087174;28;20028;-74
2023/07/15 08:50:18;;;;;;;7.43;4.38;;;27.20;99.20;;;;;;5103336;28;20027;-72
2023/07/15 08:52:45;;;;;;;6.38;3.70;;;27.50;99.30;;;;;;5104025;28;20443;-72
2023/07/15 08:55:11;;;;;;;9.82;4.07;;;27.50;99.20;;;;;;5106606;28;20474;-72
2023/07/15 08:57:37;;;;;;;9.35;4.75;;;27.50;98.80;;;;;;5095206;28;20540;-72
2023/07/15 09:00:08;;;;;;;6.85;4.05;;;27.70;99.30;;;;;;5097873;28;20050;-72
2023/07/15 09:02:37;;;;;;;6.55;4.00;;;27.70;99.10;;;;;;5099092;28;20059;-72
2023/07/15 09:05:05;;;;;;;7.63;4.10;;;27.70;99.20;;;;;;5097953;28;21454;-72
2023/07/15 09:07:30;;;;;;;5.85;3.38;;;27.70;98.20;;;;;;5073297;28;20116;-72
2023/07/15 09:10:04;;;;;;;6.38;3.88;;;27.70;98.00;;;;;;5074701;28;20115;-75
2023/07/15 09:12:29;;;;;;;5.22;3.72;;;27.80;96.80;;;;;;5074811;28;20051;-73
2023/07/15 09:14:55;;;;;;;10.55;3.88;;;27.60;97.10;;;;;;5076266;28;20141;-73
2023/07/15 09:17:21;;;;;;;5.68;3.15;;;27.90;97.80;;;;;;5081021;28;20028;-73
2023/07/15 09:19:47;;;;;;;7.57;3.72;;;28.00;96.50;;;;;;5070967;28;20040;-71
2023/07/15 09:22:13;;;;;;;7.65;3.92;;;27.90;96.80;;;;;;5075614;28;20034;-73
2023/07/15 09:24:39;;;;;;;10.35;4.78;;;27.80;96.30;;;;;;5074222;28;20024;-73
2023/07/15 09:27:06;;;;;;;7.22;3.63;;;27.90;97.40;;;;;;5075119;28;20044;-73
2023/07/15 09:29:32;;;;;;;6.82;3.50;;;28.00;97.40;;;;;;5073954;28;20032;-73
2023/07/15 09:31:58;;;;;;;7.13;3.53;;;28.20;96.70;;;;;;5076184;28;20083;-73
2023/07/15 09:34:24;;;;;;;7.00;3.25;;;28.30;96.40;;;;;;5083694;28;20482;-73
2023/07/15 09:36:51;;;;;;;4.97;3.58;;;28.20;96.60;;;;;;5087805;28;20016;-73
2023/07/15 09:39:19;;;;;;;6.65;3.60;;;28.60;97.10;;;;;;5095380;28;20064;-73
2023/07/15 09:41:59;;;;;;;10.38;4.20;;;28.30;96.80;;;;;;5093824;28;20913;-72
2023/07/15 09:44:35;;;;;;;11.05;4.07;;;28.30;97.00;;;;;;5089426;28;20025;-71
2023/07/15 09:47:05;;;;;;;7.88;4.03;;;28.40;96.60;;;;;;5089246;28;20024;-70
2023/07/15 09:49:31;;;;;;;7.80;4.07;;;28.60;97.50;;;;;;5088383;28;20032;-70
2023/07/15 09:51:58;;;;;;;6.38;3.20;;;28.70;97.70;;;;;;5095912;28;20416;-71
2023/07/15 09:54:28;;;;;;;12.18;3.97;;;28.80;96.80;;;;;;5093094;28;20043;-71
2023/07/15 09:57:00;;;;;;;8.65;3.63;;;28.70;96.70;;;;;;5093451;28;20082;-70
2023/07/15 09:59:34;;;;;;;6.28;3.65;;;28.80;97.00;;;;;;5089873;28;20133;-71
2023/07/15 10:02:08;;;;;;;5.65;2.95;;;29.20;97.00;;;;;;5096355;28;20493;-71
2023/07/15 10:04:37;;;;;;;9.93;4.55;;;29.20;97.80;;;;;;5101527;28;20039;-71
2023/07/15 10:07:04;;;;;;;6.63;3.70;;;29.10;96.80;;;;;;5092203;28;20114;-71
2023/07/15 10:09:34;;;;;;;6.20;3.33;;;29.40;96.40;;;;;;5094404;28;20166;-71
2023/07/15 10:12:00;;;;;;;8.38;3.35;;;29.30;97.70;;;;;;5101491;28;20046;-71
2023/07/15 10:14:30;;;;;;;7.70;3.58;;;29.20;97.20;;;;;;5100976;28;20020;-70
2023/07/15 10:17:15;;;;;;;6.93;4.13;;;29.20;97.80;;;;;;5094595;27;20023;-71
2023/07/15 10:19:47;;;;;;;6.82;3.58;;;29.20;97.70;;;;;;5095605;28;20786;-71
2023/07/15 10:22:13;;;;;;;8.65;3.63;;;29.30;97.40;;;;;;5099202;28;20028;-71
2023/07/15 10:24:43;;;;;;;5.97;3.70;;;29.30;98.00;;;;;;5104099;28;20098;-71
2023/07/15 10:27:10;;;;;;;14.82;4.53;;;29.30;97.00;;;;;;5097181;28;20039;-72
2023/07/15 10:29:40;;;;;;;5.75;3.80;;;29.20;96.90;;;;;;5092250;28;20072;-71
2023/07/15 10:32:15;;;;;;;6.63;3.88;;;29.30;97.00;;;;;;5103128;27;20169;-71
2023/07/15 10:34:49;;;;;;;10.52;4.25;;;29.20;96.70;;;;;;5100258;28;20543;-71
2023/07/15 10:37:17;;;;;;;7.57;3.80;;;29.00;97.00;;;;;;5098130;28;20040;-71
2023/07/15 10:39:44;;;;;;;7.15;3.30;;;29.10;97.30;;;;;;5094054;28;20115;-72
2023/07/15 10:42:16;;;;;;;7.22;3.78;;;29.60;97.60;;;;;;5103518;28;20384;-72
2023/07/15 10:44:44;;;;;;;7.80;3.83;;;30.00;97.90;;;;;;5093395;28;20402;-72
2023/07/15 10:47:10;;;;;;;12.60;4.30;;;30.20;96.90;;;;;;5089853;28;20073;-72
2023/07/15 10:49:36;;;;;;;9.77;3.75;;;30.30;97.50;;;;;;5093269;28;20509;-72
2023/07/15 10:52:05;;;;;;;8.35;4.30;;;29.70;96.40;;;;;;5103748;28;20110;-72
2023/07/15 10:54:36;;;;;;;6.35;3.88;;;29.40;97.10;;;;;;5094614;28;20032;-71
2023/07/15 10:57:10;;;;;;;8.88;3.83;;;29.60;97.50;;;;;;5095377;28;20122;-72
2023/07/15 10:59:38;;;;;;;8.98;3.58;;;30.00;97.90;;;;;;5097604;28;20039;-72
2023/07/15 11:02:04;;;;;;;9.05;3.83;;;30.60;97.70;;;;;;5088945;28;20454;-72
2023/07/15 11:04:30;;;;;;;9.93;4.13;;;30.30;96.50;;;;;;5094285;28;20032;-72
2023/07/15 11:07:10;;;;;;;7.57;3.63;;;30.40;97.70;;;;;;5090741;28;20823;-71
2023/07/15 11:09:41;;;;;;;7.38;3.45;;;30.70;97.10;;;;;;5098007;28;20024;-72
2023/07/15 11:12:09;;;;;;;7.88;4.28;;;30.80;96.60;;;;;;5096831;28;20036;-71
2023/07/15 11:14:39;;;;;;;7.05;4.03;;;31.00;97.00;;;;;;5098023;28;20054;-72
2023/07/15 11:17:06;;;;;;;9.07;3.90;;;31.00;97.10;;;;;;5098122;28;20059;-72
2023/07/15 11:19:32;;;;;;;13.10;4.65;;;30.70;97.20;;;;;;5100395;28;20066;-72
2023/07/15 11:21:59;;;;;;;9.75;4.20;;;31.00;97.90;;;;;;5102561;28;20547;-71
2023/07/15 11:24:26;;;;;;;9.55;4.10;;;30.90;97.10;;;;;;5100006;28;20036;-71
2023/07/15 11:26:52;;;;;;;7.20;3.80;;;31.00;97.00;;;;;;5096117;28;20497;-72
2023/07/15 11:29:22;;;;;;;8.15;4.20;;;31.00;97.20;;;;;;5092231;28;20031;-71
2023/07/15 11:31:49;;;;;;;8.63;4.45;;;31.00;96.90;;;;;;5100183;27;20099;-71
2023/07/15 11:34:20;;;;;;;7.55;4.03;;;31.20;97.30;;;;;;5094163;28;20545;-71
2023/07/15 11:36:47;;;;;;;6.65;3.95;;;31.30;97.10;;;;;;5092446;28;20023;-71
2023/07/15 11:39:14;;;;;;;9.57;3.60;;;31.10;96.40;;;;;;5100762;28;20032;-72
2023/07/15 11:41:40;;;;;;;10.10;3.85;;;31.00;96.30;;;;;;5096094;28;20074;-72
2023/07/15 11:44:16;;;;;;;10.85;4.20;;;30.90;97.20;;;;;;5093638;28;20024;-71
2023/07/15 11:46:44;;;;;;;7.22;4.25;;;31.00;97.10;;;;;;5092508;28;20124;-71
2023/07/15 11:49:11;;;;;;;7.68;4.80;;;31.10;96.90;;;;;;5094612;28;20137;-72
2023/07/15 11:51:41;;;;;;;8.32;4.50;;;31.10;97.90;;;;;;5097357;28;20118;-71
2023/07/15 11:54:09;;;;;;;8.27;4.10;;;31.40;97.00;;;;;;5095972;28;20031;-72
2023/07/15 11:56:36;;;;;;;7.50;4.45;;;31.30;97.20;;;;;;5103216;28;20618;-72
2023/07/15 11:59:04;;;;;;;8.52;4.00;;;31.60;97.10;;;;;;5091732;28;20529;-72
2023/07/15 12:01:30;;;;;;;10.57;5.28;;;31.30;96.60;;;;;;5089032;28;20350;-72
2023/07/15 12:03:56;;;;;;;9.43;4.00;;;31.70;97.10;;;;;;5098019;28;20039;-72
2023/07/15 12:06:27;;;;;;;5.90;3.95;;;31.60;96.70;;;;;;5091844;28;20028;-72
2023/07/15 12:08:59;;;;;;;9.65;4.35;;;31.50;97.30;;;;;;5098142;28;20024;-72
2023/07/15 12:11:25;;;;;;;10.80;4.40;;;31.60;97.10;;;;;;5097825;28;20035;-72
2023/07/15 12:13:50;;;;;;;7.45;4.10;;;31.50;96.70;;;;;;5095719;28;20027;-71
2023/07/15 12:16:21;;;;;;;8.60;4.65;;;31.70;96.60;;;;;;5097239;28;20027;-72
2023/07/15 12:18:47;;;;;;;6.30;4.38;;;31.50;97.30;;;;;;5100629;28;20032;-72
2023/07/15 12:21:13;;;;;;;9.18;4.47;;;31.40;96.60;;;;;;5091196;28;20112;-72
2023/07/15 12:23:38;;;;;;;9.82;4.65;;;31.50;96.60;;;;;;5092276;28;20024;-72
2023/07/15 12:26:04;;;;;;;9.40;4.13;;;31.50;96.80;;;;;;5088519;28;20028;-72
2023/07/15 12:28:29;;;;;;;10.18;4.32;;;31.60;96.10;;;;;;5102640;28;20032;-71
2023/07/15 12:30:55;;;;;;;9.82;5.10;;;31.80;96.80;;;;;;5104234;28;20078;-71
2023/07/15 12:33:21;;;;;;;7.47;4.47;;;31.80;96.40;;;;;;5093387;28;20477;-71
2023/07/15 12:35:47;;;;;;;12.38;4.88;;;32.00;96.70;;;;;;5095729;28;20501;-72
2023/07/15 12:38:13;;;;;;;9.80;4.32;;;31.90;95.80;;;;;;5094353;28;20106;-72
2023/07/15 12:40:39;;;;;;;8.98;4.20;;;32.10;96.20;;;;;;5093612;28;20088;-72
2023/07/15 12:43:04;;;;;;;9.48;5.18;;;32.00;96.20;;;;;;5088407;28;20424;-72